createdAt,value
2019-02-26T00:00:44.953Z,1.38
2019-02-26T00:01:46.195Z,1.65
2019-02-26T00:02:41.509Z,1.92
2019-02-26T00:03:41.503Z,2.15
2019-02-26T00:04:41.526Z,2.12
2019-02-26T00:05:41.460Z,2.22
2019-02-26T00:06:42.456Z,2.44
2019-02-26T00:07:41.438Z,2.44
2019-02-26T00:08:41.430Z,2.56
2019-02-26T00:09:41.436Z,2.84
2019-02-26T00:10:41.420Z,3.04
2019-02-26T00:11:41.451Z,3.16
2019-02-26T00:12:41.415Z,3.12
2019-02-26T00:13:41.453Z,3.08
2019-02-26T00:14:43.062Z,3.10
2019-02-26T00:15:43.270Z,3.07
2019-02-26T00:16:42.397Z,3.13
2019-02-26T00:17:43.735Z,3.22
2019-02-26T00:18:42.683Z,3.17
2019-02-26T00:19:41.351Z,3.20
2019-02-26T00:20:41.429Z,3.12
2019-02-26T00:21:43.041Z,3.19
2019-02-26T00:22:41.322Z,3.22
2019-02-26T00:23:42.043Z,3.37
2019-02-26T00:24:42.638Z,3.71
2019-02-26T00:25:41.263Z,4.16
2019-02-26T00:26:43.353Z,4.24
2019-02-26T00:27:41.251Z,4.32
2019-02-26T00:28:42.020Z,4.17
2019-02-26T00:29:41.235Z,3.90
2019-02-26T00:30:42.471Z,3.77
2019-02-26T00:31:43.235Z,3.62
2019-02-26T00:32:41.175Z,3.46
2019-02-26T00:33:41.167Z,3.34
2019-02-26T00:34:41.218Z,3.23
2019-02-26T00:35:41.632Z,3.02
2019-02-26T00:36:41.150Z,2.80
2019-02-26T00:37:41.127Z,2.71
2019-02-26T00:38:42.670Z,2.68
2019-02-26T00:39:41.137Z,2.48
2019-02-26T00:40:43.119Z,2.29
2019-02-26T00:41:41.111Z,2.14
2019-02-26T00:42:41.113Z,2.11
2019-02-26T00:43:41.077Z,1.98
2019-02-26T00:44:41.079Z,2.09
2019-02-26T00:45:41.052Z,2.02
2019-02-26T00:46:41.043Z,1.98
2019-02-26T00:47:41.634Z,1.95
2019-02-26T00:48:43.010Z,1.74
2019-02-26T00:49:42.048Z,1.68
2019-02-26T00:50:41.000Z,1.82
2019-02-26T00:51:44.322Z,1.68
2019-02-26T00:52:42.022Z,1.54
2019-02-26T00:53:40.989Z,1.60
2019-02-26T00:54:40.987Z,1.56
2019-02-26T00:55:41.017Z,1.49
2019-02-26T00:56:41.136Z,1.34
2019-02-26T00:57:42.928Z,1.35
2019-02-26T00:58:41.592Z,1.26
2019-02-26T00:59:41.996Z,1.17
2019-02-26T01:00:40.929Z,1.10
2019-02-26T01:01:44.117Z,1.17
2019-02-26T01:02:41.876Z,1.20
2019-02-26T01:03:43.053Z,1.11
2019-02-26T01:04:41.484Z,1.13
2019-02-26T01:05:42.715Z,1.13
2019-02-26T01:06:40.839Z,1.28
2019-02-26T01:07:42.008Z,1.44
2019-02-26T01:08:42.519Z,1.53
2019-02-26T01:09:40.810Z,1.42
2019-02-26T01:10:41.521Z,1.46
2019-02-26T01:11:40.763Z,1.29
2019-02-26T01:12:42.506Z,1.38
2019-02-26T01:13:40.769Z,1.46
2019-02-26T01:14:41.296Z,1.46
2019-02-26T01:15:40.721Z,1.46
2019-02-26T01:16:42.059Z,1.24
2019-02-26T01:17:42.218Z,1.14
2019-02-26T01:18:42.179Z,1.14
2019-02-26T01:19:42.596Z,1.20
2019-02-26T01:20:40.699Z,1.17
2019-02-26T01:21:40.670Z,1.26
2019-02-26T01:22:42.641Z,1.39
2019-02-26T01:23:40.637Z,1.28
2019-02-26T01:24:40.628Z,1.39
2019-02-26T01:25:40.616Z,1.38
2019-02-26T01:26:42.518Z,1.36
2019-02-26T01:27:41.357Z,1.25
2019-02-26T01:28:44.105Z,1.24
2019-02-26T01:29:41.572Z,1.70
2019-02-26T01:30:40.562Z,1.95
2019-02-26T01:31:40.562Z,1.92
2019-02-26T01:32:40.543Z,1.77
2019-02-26T01:33:40.562Z,1.71
2019-02-26T01:34:42.570Z,1.63
2019-02-26T01:35:40.517Z,1.65
2019-02-26T01:36:42.561Z,1.65
2019-02-26T01:37:40.490Z,1.70
2019-02-26T01:38:41.758Z,2.00
2019-02-26T01:39:42.374Z,2.50
2019-02-26T01:40:43.563Z,2.63
2019-02-26T01:41:43.422Z,2.59
2019-02-26T01:42:40.461Z,2.56
2019-02-26T01:43:40.496Z,2.50
2019-02-26T01:44:42.212Z,2.58
2019-02-26T01:45:40.422Z,2.58
2019-02-26T01:46:41.151Z,2.69
2019-02-26T01:47:42.296Z,2.68
2019-02-26T01:48:41.293Z,2.44
2019-02-26T01:49:41.942Z,2.41
2019-02-26T01:50:40.748Z,2.48
2019-02-26T01:51:40.353Z,2.05
2019-02-26T01:52:40.330Z,2.11
2019-02-26T01:53:41.959Z,2.08
2019-02-26T01:54:40.309Z,1.98
2019-02-26T01:55:42.107Z,2.04
2019-02-26T01:56:40.301Z,1.89
2019-02-26T01:57:42.552Z,1.74
2019-02-26T01:58:40.312Z,1.60
2019-02-26T01:59:40.256Z,1.44
2019-02-26T02:00:40.838Z,1.31
2019-02-26T02:01:44.102Z,1.20
2019-02-26T02:02:40.226Z,1.02
2019-02-26T02:03:40.214Z,1.02
2019-02-26T02:04:41.263Z,0.99
2019-02-26T02:05:40.214Z,0.93
2019-02-26T02:06:41.346Z,0.92
2019-02-26T02:07:40.223Z,0.88
2019-02-26T02:08:43.347Z,0.89
2019-02-26T02:09:40.150Z,0.88
2019-02-26T02:10:40.141Z,0.82
2019-02-26T02:11:40.722Z,0.72
2019-02-26T02:12:41.496Z,0.63
2019-02-26T02:13:41.236Z,0.60
2019-02-26T02:14:40.096Z,0.56
2019-02-26T02:15:42.112Z,0.48
2019-02-26T02:16:40.077Z,0.43
2019-02-26T02:17:40.164Z,0.41
2019-02-26T02:18:43.770Z,0.35
2019-02-26T02:19:40.074Z,0.26
2019-02-26T02:20:40.064Z,0.31
2019-02-26T02:21:40.041Z,0.37
2019-02-26T02:22:41.817Z,0.53
2019-02-26T02:23:42.002Z,0.63
2019-02-26T02:24:43.468Z,0.67
2019-02-26T02:25:40.901Z,0.64
2019-02-26T02:26:42.948Z,0.51
2019-02-26T02:27:40.004Z,0.44
2019-02-26T02:28:39.948Z,0.28
2019-02-26T02:29:41.846Z,0.34
2019-02-26T02:30:39.933Z,0.22
2019-02-26T02:31:40.269Z,0.25
2019-02-26T02:32:39.919Z,0.25
2019-02-26T02:33:39.930Z,0.13
2019-02-26T02:34:42.892Z,0.23
2019-02-26T02:35:39.875Z,0.37
2019-02-26T02:36:39.864Z,0.53
2019-02-26T02:37:39.865Z,0.62
2019-02-26T02:38:39.842Z,0.59
2019-02-26T02:39:39.837Z,0.33
2019-02-26T02:40:40.164Z,0.28
2019-02-26T02:41:42.085Z,0.13
2019-02-26T02:42:40.817Z,0.02
2019-02-26T02:43:39.790Z,0.12
2019-02-26T02:44:42.210Z,0.13
2019-02-26T02:45:39.768Z,0.02
2019-02-26T02:46:41.883Z,-0.05
2019-02-26T02:47:39.762Z,-0.17
2019-02-26T02:48:39.748Z,-0.17
2019-02-26T02:49:41.697Z,-0.14
2019-02-26T02:50:39.718Z,-0.16
2019-02-26T02:51:39.706Z,-0.21
2019-02-26T02:52:39.736Z,-0.26
2019-02-26T02:53:39.688Z,-0.31
2019-02-26T02:54:41.211Z,-0.38
2019-02-26T02:55:40.429Z,-0.55
2019-02-26T02:56:41.760Z,-0.26
2019-02-26T02:57:39.653Z,0.15
2019-02-26T02:58:41.795Z,0.02
2019-02-26T02:59:42.222Z,0.33
2019-02-26T03:00:39.613Z,0.33
2019-02-26T03:01:39.606Z,0.22
2019-02-26T03:02:42.750Z,0.15
2019-02-26T03:03:39.591Z,0.28
2019-02-26T03:04:39.625Z,0.16
2019-02-26T03:05:41.270Z,0.10
2019-02-26T03:06:39.585Z,0.08
2019-02-26T03:07:39.539Z,0.07
2019-02-26T03:08:42.121Z,0.19
2019-02-26T03:09:40.682Z,0.12
2019-02-26T03:10:42.339Z,-0.08
2019-02-26T03:11:41.961Z,-0.14
2019-02-26T03:12:39.516Z,-0.13
2019-02-26T03:13:40.414Z,-0.02
2019-02-26T03:14:41.850Z,-0.03
2019-02-26T03:15:39.488Z,0.23
2019-02-26T03:16:42.591Z,0.34
2019-02-26T03:17:40.455Z,0.20
2019-02-26T03:18:39.435Z,0.13
2019-02-26T03:19:41.526Z,0.35
2019-02-26T03:20:40.363Z,0.08
2019-02-26T03:21:39.391Z,0.07
2019-02-26T03:22:42.251Z,0.13
2019-02-26T03:23:43.042Z,0.12
2019-02-26T03:24:39.395Z,0.23
2019-02-26T03:25:41.304Z,0.43
2019-02-26T03:26:39.339Z,0.45
2019-02-26T03:27:42.009Z,0.92
2019-02-26T03:28:39.995Z,1.14
2019-02-26T03:29:39.312Z,1.08
2019-02-26T03:30:43.963Z,1.02
2019-02-26T03:31:45.295Z,0.96
2019-02-26T03:32:41.287Z,0.88
2019-02-26T03:33:40.281Z,0.84
2019-02-26T03:34:39.258Z,0.88
2019-02-26T03:35:39.246Z,1.07
2019-02-26T03:36:40.817Z,0.72
2019-02-26T03:37:39.223Z,0.63
2019-02-26T03:38:40.840Z,0.56
2019-02-26T03:39:39.202Z,0.34
2019-02-26T03:40:39.200Z,0.33
2019-02-26T03:41:39.182Z,0.31
2019-02-26T03:42:41.578Z,0.67
2019-02-26T03:43:40.012Z,0.62
2019-02-26T03:44:39.188Z,0.52
2019-02-26T03:45:39.139Z,0.49
2019-02-26T03:46:39.131Z,0.44
2019-02-26T03:47:40.599Z,0.38
2019-02-26T03:48:39.120Z,0.37
2019-02-26T03:49:41.682Z,0.33
2019-02-26T03:50:39.136Z,0.20
2019-02-26T03:51:39.792Z,0.19
2019-02-26T03:52:39.068Z,0.48
2019-02-26T03:53:41.326Z,0.92
2019-02-26T03:54:40.357Z,1.04
2019-02-26T03:55:41.457Z,0.98
2019-02-26T03:56:39.047Z,0.89
2019-02-26T03:57:43.594Z,0.86
2019-02-26T03:58:40.026Z,0.80
2019-02-26T03:59:38.991Z,0.93
2019-02-26T04:00:41.716Z,0.99
2019-02-26T04:01:38.973Z,1.07
2019-02-26T04:02:42.183Z,1.02
2019-02-26T04:03:39.520Z,1.08
2019-02-26T04:04:38.951Z,0.98
2019-02-26T04:05:38.934Z,1.08
2019-02-26T04:06:41.091Z,1.20
2019-02-26T04:07:38.914Z,1.18
2019-02-26T04:08:38.929Z,1.36
2019-02-26T04:09:41.906Z,1.63
2019-02-26T04:10:39.877Z,1.75
2019-02-26T04:11:39.617Z,1.79
2019-02-26T04:12:42.254Z,1.68
2019-02-26T04:13:41.062Z,1.57
2019-02-26T04:14:38.846Z,1.42
2019-02-26T04:15:38.858Z,1.38
2019-02-26T04:16:41.111Z,1.20
2019-02-26T04:17:40.169Z,1.11
2019-02-26T04:18:38.793Z,1.04
2019-02-26T04:19:38.792Z,1.07
2019-02-26T04:20:43.537Z,1.13
2019-02-26T04:21:39.772Z,1.14
2019-02-26T04:22:40.219Z,1.21
2019-02-26T04:23:39.709Z,1.26
2019-02-26T04:24:38.800Z,1.29
2019-02-26T04:25:38.751Z,1.26
2019-02-26T04:26:38.711Z,1.31
2019-02-26T04:27:40.896Z,1.29
2019-02-26T04:28:40.383Z,1.31
2019-02-26T04:29:40.917Z,1.35
2019-02-26T04:30:39.250Z,1.43
2019-02-26T04:31:38.695Z,1.43
2019-02-26T04:32:40.852Z,1.34
2019-02-26T04:33:41.327Z,1.32
2019-02-26T04:34:38.636Z,1.29
2019-02-26T04:35:38.614Z,1.54
2019-02-26T04:36:41.636Z,1.52
2019-02-26T04:37:38.728Z,1.42
2019-02-26T04:38:38.612Z,1.46
2019-02-26T04:39:40.318Z,1.47
2019-02-26T04:40:40.818Z,1.44
2019-02-26T04:41:38.552Z,1.39
2019-02-26T04:42:40.961Z,1.26
2019-02-26T04:43:38.821Z,1.21
2019-02-26T04:44:38.555Z,1.46
2019-02-26T04:45:38.514Z,1.35
2019-02-26T04:46:39.560Z,1.29
2019-02-26T04:47:40.549Z,1.18
2019-02-26T04:48:38.477Z,1.10
2019-02-26T04:49:42.530Z,1.10
2019-02-26T04:50:39.426Z,1.10
2019-02-26T04:51:41.526Z,1.07
2019-02-26T04:52:41.231Z,1.06
2019-02-26T04:53:39.425Z,1.00
2019-02-26T04:54:39.517Z,0.88
2019-02-26T04:55:41.355Z,0.78
2019-02-26T04:56:40.173Z,0.60
2019-02-26T04:57:40.166Z,0.60
2019-02-26T04:58:40.384Z,0.63
2019-02-26T04:59:41.200Z,0.99
2019-02-26T05:00:39.360Z,1.11
2019-02-26T05:01:38.388Z,1.18
2019-02-26T05:02:38.333Z,1.65
2019-02-26T05:03:38.322Z,1.95
2019-02-26T05:04:40.047Z,2.08
2019-02-26T05:05:38.310Z,2.23
2019-02-26T05:06:38.299Z,2.38
2019-02-26T05:07:41.166Z,2.62
2019-02-26T05:08:40.115Z,2.63
2019-02-26T05:09:38.260Z,2.40
2019-02-26T05:10:38.262Z,2.50
2019-02-26T05:11:40.622Z,2.26
2019-02-26T05:12:40.189Z,2.09
2019-02-26T05:13:38.238Z,1.90
2019-02-26T05:14:38.238Z,2.04
2019-02-26T05:15:38.243Z,2.14
2019-02-26T05:16:40.387Z,2.01
2019-02-26T05:17:38.200Z,1.89
2019-02-26T05:18:38.160Z,1.54
2019-02-26T05:19:39.619Z,1.52
2019-02-26T05:20:40.141Z,1.36
2019-02-26T05:21:38.133Z,1.20
2019-02-26T05:22:38.150Z,1.14
2019-02-26T05:23:38.146Z,1.28
2019-02-26T05:24:41.409Z,1.25
2019-02-26T05:25:39.643Z,1.17
2019-02-26T05:26:38.080Z,1.10
2019-02-26T05:27:39.699Z,1.02
2019-02-26T05:28:40.823Z,1.02
2019-02-26T05:29:40.969Z,1.04
2019-02-26T05:30:40.263Z,1.04
2019-02-26T05:31:40.046Z,0.90
2019-02-26T05:32:38.014Z,0.72
2019-02-26T05:33:38.004Z,0.57
2019-02-26T05:34:39.812Z,0.41
2019-02-26T05:35:40.704Z,0.34
2019-02-26T05:36:40.284Z,0.19
2019-02-26T05:37:40.866Z,0.04
2019-02-26T05:38:37.955Z,-0.02
2019-02-26T05:39:40.346Z,-0.14
2019-02-26T05:40:40.391Z,-0.37
2019-02-26T05:41:40.300Z,-0.27
2019-02-26T05:42:37.932Z,-0.34
2019-02-26T05:43:37.898Z,-0.34
2019-02-26T05:44:37.889Z,-0.44
2019-02-26T05:45:37.877Z,-0.53
2019-02-26T05:46:37.882Z,-0.53
2019-02-26T05:47:37.870Z,-0.53
2019-02-26T05:48:39.975Z,-0.71
2019-02-26T05:49:41.437Z,-0.70
2019-02-26T05:50:38.600Z,-0.39
2019-02-26T05:51:38.285Z,-0.12
2019-02-26T05:52:37.846Z,-0.26
2019-02-26T05:53:37.793Z,-0.42
2019-02-26T05:54:37.820Z,-0.49
2019-02-26T05:55:37.773Z,-0.58
2019-02-26T05:56:40.756Z,-0.55
2019-02-26T05:57:38.750Z,-0.59
2019-02-26T05:58:39.451Z,-0.56
2019-02-26T05:59:37.730Z,-0.67
2019-02-26T06:00:37.752Z,-0.67
2019-02-26T06:01:37.768Z,-0.68
2019-02-26T06:02:40.159Z,-0.63
2019-02-26T06:03:38.512Z,-0.77
2019-02-26T06:04:40.451Z,-0.71
2019-02-26T06:05:41.116Z,-0.71
2019-02-26T06:06:38.670Z,-0.70
2019-02-26T06:07:38.899Z,-0.71
2019-02-26T06:08:39.247Z,-0.76
2019-02-26T06:09:37.627Z,-0.77
2019-02-26T06:10:37.614Z,-0.95
2019-02-26T06:11:39.991Z,-0.81
2019-02-26T06:12:40.331Z,-0.86
2019-02-26T06:13:38.306Z,-0.76
2019-02-26T06:14:39.323Z,-0.89
2019-02-26T06:15:37.563Z,-0.85
2019-02-26T06:16:37.564Z,-0.93
2019-02-26T06:17:40.652Z,-0.83
2019-02-26T06:18:41.211Z,-0.85
2019-02-26T06:19:39.600Z,-0.85
2019-02-26T06:20:37.511Z,-0.76
2019-02-26T06:21:39.632Z,-0.73
2019-02-26T06:22:37.490Z,-0.70
2019-02-26T06:23:39.338Z,-0.76
2019-02-26T06:24:38.104Z,-0.65
2019-02-26T06:25:37.483Z,-0.58
2019-02-26T06:26:38.106Z,-0.42
2019-02-26T06:27:37.437Z,-0.55
2019-02-26T06:28:40.195Z,-0.35
2019-02-26T06:29:37.494Z,-0.08
2019-02-26T06:30:37.406Z,0.07
2019-02-26T06:31:39.578Z,0.05
2019-02-26T06:32:39.702Z,-0.13
2019-02-26T06:33:38.549Z,-0.13
2019-02-26T06:34:37.363Z,-0.16
2019-02-26T06:35:38.498Z,-0.23
2019-02-26T06:36:37.355Z,-0.47
2019-02-26T06:37:37.769Z,-0.30
2019-02-26T06:38:37.326Z,-0.32
2019-02-26T06:39:37.312Z,-0.24
2019-02-26T06:40:39.286Z,-0.32
2019-02-26T06:41:39.549Z,-0.37
2019-02-26T06:42:38.073Z,-0.31
2019-02-26T06:43:39.633Z,-0.38
2019-02-26T06:44:38.921Z,-0.34
2019-02-26T06:45:37.973Z,-0.35
2019-02-26T06:46:38.316Z,-0.27
2019-02-26T06:47:37.226Z,-0.37
2019-02-26T06:48:37.220Z,-0.39
2019-02-26T06:49:37.226Z,-0.21
2019-02-26T06:50:38.764Z,-0.03
2019-02-26T06:51:37.187Z,-0.03
2019-02-26T06:52:38.193Z,0.04
2019-02-26T06:53:37.166Z,0.07
2019-02-26T06:54:37.178Z,0.07
2019-02-26T06:55:37.171Z,0.17
2019-02-26T06:56:41.506Z,0.31
2019-02-26T06:57:39.171Z,0.33
2019-02-26T06:58:38.156Z,0.71
2019-02-26T06:59:37.100Z,0.84
2019-02-26T07:00:37.089Z,1.08
2019-02-26T07:01:39.216Z,1.28
2019-02-26T07:02:37.121Z,1.49
2019-02-26T07:03:40.360Z,1.68
2019-02-26T07:04:37.046Z,1.79
2019-02-26T07:05:37.039Z,1.74
2019-02-26T07:06:38.028Z,1.72
2019-02-26T07:07:37.026Z,1.75
2019-02-26T07:08:37.034Z,1.85
2019-02-26T07:09:39.068Z,1.90
2019-02-26T07:10:36.986Z,2.05
2019-02-26T07:11:37.873Z,2.15
2019-02-26T07:12:38.780Z,2.32
2019-02-26T07:13:39.153Z,2.59
2019-02-26T07:14:36.980Z,2.89
2019-02-26T07:15:36.950Z,3.07
2019-02-26T07:16:39.779Z,3.20
2019-02-26T07:17:38.410Z,3.39
2019-02-26T07:18:36.904Z,3.52
2019-02-26T07:19:38.130Z,3.80
2019-02-26T07:20:39.958Z,4.11
2019-02-26T07:21:38.041Z,4.38
2019-02-26T07:22:36.870Z,4.86
2019-02-26T07:23:38.220Z,5.23
2019-02-26T07:24:38.469Z,5.38
2019-02-26T07:25:39.040Z,5.51
2019-02-26T07:26:38.637Z,5.37
2019-02-26T07:27:38.405Z,5.26
2019-02-26T07:28:36.816Z,5.35
2019-02-26T07:29:39.858Z,5.70
2019-02-26T07:30:37.483Z,5.96
2019-02-26T07:31:36.763Z,6.24
2019-02-26T07:32:38.340Z,6.42
2019-02-26T07:33:37.805Z,6.54
2019-02-26T07:34:36.732Z,6.69
2019-02-26T07:35:37.348Z,6.76
2019-02-26T07:36:36.731Z,6.82
2019-02-26T07:37:38.141Z,6.96
2019-02-26T07:38:41.240Z,7.15
2019-02-26T07:39:36.707Z,7.39
2019-02-26T07:40:38.604Z,7.81
2019-02-26T07:41:36.678Z,8.18
2019-02-26T07:42:37.285Z,8.52
2019-02-26T07:43:40.085Z,9.00
2019-02-26T07:44:36.632Z,8.96
2019-02-26T07:45:36.656Z,8.60
2019-02-26T07:46:38.533Z,8.32
2019-02-26T07:47:36.670Z,8.13
2019-02-26T07:48:36.589Z,8.10
2019-02-26T07:49:36.609Z,8.25
2019-02-26T07:50:38.279Z,8.39
2019-02-26T07:51:38.579Z,8.61
2019-02-26T07:52:36.570Z,8.85
2019-02-26T07:53:36.542Z,8.93
2019-02-26T07:54:37.766Z,8.89
2019-02-26T07:55:38.183Z,9.08
2019-02-26T07:56:36.527Z,9.04
2019-02-26T07:57:36.508Z,8.89
2019-02-26T07:58:38.482Z,8.86
2019-02-26T07:59:36.973Z,8.71
2019-02-26T08:00:37.708Z,8.31
2019-02-26T08:01:37.608Z,8.00
2019-02-26T08:02:37.293Z,7.82
2019-02-26T08:03:36.456Z,7.91
2019-02-26T08:04:38.765Z,8.02
2019-02-26T08:05:36.416Z,8.14
2019-02-26T08:06:38.369Z,8.00
2019-02-26T08:07:36.424Z,7.99
2019-02-26T08:08:37.459Z,7.47
2019-02-26T08:09:36.397Z,7.29
2019-02-26T08:10:39.414Z,7.24
2019-02-26T08:11:38.703Z,7.42
2019-02-26T08:12:38.072Z,7.73
2019-02-26T08:13:36.643Z,8.09
2019-02-26T08:14:38.040Z,8.52
2019-02-26T08:15:37.512Z,8.71
2019-02-26T08:16:36.304Z,8.96
2019-02-26T08:17:36.279Z,9.48
2019-02-26T08:18:36.332Z,9.83
2019-02-26T08:19:37.605Z,10.01
2019-02-26T08:20:37.582Z,10.07
2019-02-26T08:21:36.255Z,10.43
2019-02-26T08:22:36.334Z,10.54
2019-02-26T08:23:36.233Z,10.69
2019-02-26T08:24:36.239Z,10.76
2019-02-26T08:25:36.216Z,10.88
2019-02-26T08:26:38.109Z,10.69
2019-02-26T08:27:37.889Z,10.87
2019-02-26T08:28:38.459Z,11.26
2019-02-26T08:29:36.318Z,11.23
2019-02-26T08:30:40.145Z,11.11
2019-02-26T08:31:37.141Z,10.94
2019-02-26T08:32:36.110Z,10.81
2019-02-26T08:33:36.154Z,11.02
2019-02-26T08:34:39.093Z,11.57
2019-02-26T08:35:36.102Z,12.11
2019-02-26T08:36:36.077Z,12.41
2019-02-26T08:37:36.059Z,12.56
2019-02-26T08:38:36.067Z,12.49
2019-02-26T08:39:37.913Z,12.01
2019-02-26T08:40:36.041Z,11.35
2019-02-26T08:41:36.019Z,10.63
2019-02-26T08:42:36.033Z,10.88
2019-02-26T08:43:36.021Z,11.79
2019-02-26T08:44:36.011Z,12.38
2019-02-26T08:45:35.983Z,12.61
2019-02-26T08:46:37.842Z,12.56
2019-02-26T08:47:35.951Z,12.05
2019-02-26T08:48:36.013Z,12.03
2019-02-26T08:49:37.768Z,12.16
2019-02-26T08:50:36.772Z,12.16
2019-02-26T08:51:35.911Z,12.74
2019-02-26T08:52:35.904Z,13.06
2019-02-26T08:53:35.892Z,13.62
2019-02-26T08:54:35.975Z,14.02
2019-02-26T08:55:35.857Z,14.29
2019-02-26T08:56:36.892Z,14.31
2019-02-26T08:57:35.837Z,14.16
2019-02-26T08:58:35.840Z,14.02
2019-02-26T08:59:35.845Z,13.66
2019-02-26T09:00:35.817Z,13.79
2019-02-26T09:01:35.796Z,13.90
2019-02-26T09:02:35.786Z,14.48
2019-02-26T09:03:40.666Z,15.18
2019-02-26T09:04:38.363Z,15.46
2019-02-26T09:05:36.790Z,15.41
2019-02-26T09:06:35.765Z,14.69
2019-02-26T09:07:35.725Z,14.02
2019-02-26T09:08:37.996Z,14.34
2019-02-26T09:09:35.782Z,13.81
2019-02-26T09:10:36.411Z,13.35
2019-02-26T09:11:36.967Z,13.69
2019-02-26T09:12:35.680Z,14.49
2019-02-26T09:13:36.308Z,14.82
2019-02-26T09:14:37.535Z,14.66
2019-02-26T09:15:36.633Z,15.22
2019-02-26T09:16:35.641Z,15.15
2019-02-26T09:17:37.353Z,14.80
2019-02-26T09:18:38.218Z,14.63
2019-02-26T09:19:37.508Z,14.83
2019-02-26T09:20:35.591Z,14.59
2019-02-26T09:21:37.053Z,14.66
2019-02-26T09:22:35.587Z,14.23
2019-02-26T09:23:35.558Z,13.68
2019-02-26T09:24:35.565Z,13.75
2019-02-26T09:25:35.528Z,14.31
2019-02-26T09:26:35.528Z,14.27
2019-02-26T09:27:42.533Z,13.81
2019-02-26T09:28:36.501Z,13.61
2019-02-26T09:29:36.739Z,13.76
2019-02-26T09:30:36.474Z,13.88
2019-02-26T09:31:35.472Z,13.71
2019-02-26T09:32:37.399Z,13.66
2019-02-26T09:33:38.057Z,13.68
2019-02-26T09:34:39.287Z,14.20
2019-02-26T09:35:35.418Z,14.04
2019-02-26T09:36:35.419Z,14.29
2019-02-26T09:37:35.402Z,14.23
2019-02-26T09:38:35.406Z,14.29
2019-02-26T09:39:36.466Z,14.57
2019-02-26T09:40:35.717Z,14.78
2019-02-26T09:41:36.057Z,14.94
2019-02-26T09:42:35.351Z,14.71
2019-02-26T09:43:36.193Z,15.23
2019-02-26T09:44:35.952Z,15.49
2019-02-26T09:45:35.311Z,15.28
2019-02-26T09:46:36.338Z,15.20
2019-02-26T09:47:35.292Z,15.16
2019-02-26T09:48:35.836Z,14.91
2019-02-26T09:49:35.828Z,15.31
2019-02-26T09:50:36.745Z,15.20
2019-02-26T09:51:37.355Z,15.05
2019-02-26T09:52:35.253Z,14.79
2019-02-26T09:53:35.247Z,14.66
2019-02-26T09:54:40.325Z,14.85
2019-02-26T09:55:36.234Z,15.15
2019-02-26T09:56:35.205Z,15.62
2019-02-26T09:57:35.181Z,16.10
2019-02-26T09:58:37.349Z,17.07
2019-02-26T09:59:35.932Z,17.54
2019-02-26T10:00:35.169Z,17.15
2019-02-26T10:01:35.888Z,17.35
2019-02-26T10:02:35.164Z,16.96
2019-02-26T10:03:38.538Z,17.33
2019-02-26T10:04:35.116Z,17.21
2019-02-26T10:05:35.101Z,16.82
2019-02-26T10:06:37.368Z,16.82
2019-02-26T10:07:36.154Z,16.51
2019-02-26T10:08:35.064Z,16.26
2019-02-26T10:09:37.581Z,16.10
2019-02-26T10:10:39.191Z,15.99
2019-02-26T10:11:35.030Z,16.41
2019-02-26T10:12:36.943Z,16.08
2019-02-26T10:13:35.004Z,15.85
2019-02-26T10:14:35.856Z,16.08
2019-02-26T10:15:37.296Z,16.23
2019-02-26T10:16:34.979Z,16.40
2019-02-26T10:17:37.507Z,17.02
2019-02-26T10:18:34.961Z,17.39
2019-02-26T10:19:35.803Z,17.24
2019-02-26T10:20:34.928Z,17.05
2019-02-26T10:21:37.338Z,17.06
2019-02-26T10:22:36.186Z,16.57
2019-02-26T10:23:34.893Z,16.63
2019-02-26T10:24:37.221Z,16.55
2019-02-26T10:25:38.751Z,16.32
2019-02-26T10:26:36.646Z,16.96
2019-02-26T10:27:36.137Z,16.54
2019-02-26T10:28:37.285Z,16.22
2019-02-26T10:29:36.825Z,15.99
2019-02-26T10:30:38.269Z,15.76
2019-02-26T10:31:34.807Z,16.23
2019-02-26T10:32:34.813Z,16.63
2019-02-26T10:33:37.796Z,16.67
2019-02-26T16:13:28.678Z,13.94
2019-02-26T16:14:28.654Z,13.81
2019-02-26T16:15:28.642Z,13.81
2019-02-26T16:16:28.672Z,13.81
2019-02-26T16:17:28.635Z,13.73
2019-02-26T16:18:29.622Z,13.69
2019-02-26T16:19:28.620Z,13.51
2019-02-26T16:20:28.589Z,13.54
2019-02-26T16:21:28.599Z,13.32
2019-02-26T16:22:28.570Z,13.19
2019-02-26T16:23:28.580Z,13.07
2019-02-26T16:24:28.559Z,13.03
2019-02-26T16:25:28.571Z,12.95
2019-02-26T16:26:28.517Z,12.99
2019-02-26T16:27:28.521Z,12.87
2019-02-26T16:28:28.513Z,12.71
2019-02-26T16:29:28.503Z,12.70
2019-02-26T16:30:28.474Z,12.48
2019-02-26T16:31:29.929Z,12.48
2019-02-26T16:32:28.467Z,12.37
2019-02-26T16:33:28.452Z,12.40
2019-02-26T16:34:28.472Z,12.41
2019-02-26T16:35:28.433Z,12.29
2019-02-26T16:36:28.783Z,12.18
2019-02-26T16:37:28.399Z,12.07
2019-02-26T16:38:28.397Z,12.00
2019-02-26T16:39:28.405Z,11.93
2019-02-26T16:40:31.426Z,11.88
2019-02-26T16:41:28.363Z,11.87
2019-02-26T16:42:28.345Z,11.85
2019-02-26T16:43:28.356Z,11.79
2019-02-26T16:44:28.466Z,11.69
2019-02-26T16:45:28.443Z,11.57
2019-02-26T16:46:28.317Z,11.54
2019-02-26T16:47:28.392Z,11.54
2019-02-26T16:48:28.311Z,11.45
2019-02-26T16:49:28.415Z,11.36
2019-02-26T16:50:28.281Z,11.36
2019-02-26T16:51:28.365Z,11.39
2019-02-26T16:52:28.293Z,11.54
2019-02-26T16:53:28.268Z,11.62
2019-02-26T16:54:28.278Z,11.67
2019-02-26T16:55:28.228Z,12.26
2019-02-26T16:56:28.303Z,12.88
2019-02-26T16:57:28.848Z,13.10
2019-02-26T16:58:28.216Z,13.16
2019-02-26T16:59:28.261Z,13.31
2019-02-26T17:00:28.155Z,13.55
2019-02-26T17:01:28.147Z,13.59
2019-02-26T17:02:28.222Z,13.61
2019-02-26T17:03:28.149Z,13.68
2019-02-26T17:04:28.130Z,13.57
2019-02-26T17:05:28.121Z,13.65
2019-02-26T17:06:28.106Z,13.66
2019-02-26T17:07:28.076Z,13.54
2019-02-26T17:08:28.065Z,13.24
2019-02-26T17:09:28.107Z,13.09
2019-02-26T17:10:30.352Z,13.07
2019-02-26T17:11:28.103Z,13.21
2019-02-26T17:12:29.163Z,13.07
2019-02-26T17:13:28.086Z,13.01
2019-02-26T17:14:28.100Z,12.98
2019-02-26T17:15:28.028Z,12.80
2019-02-26T17:16:31.154Z,12.69
2019-02-26T17:17:27.964Z,12.76
2019-02-26T17:18:27.951Z,12.66
2019-02-26T17:19:27.989Z,12.71
2019-02-26T17:20:27.966Z,12.61
2019-02-26T17:21:30.548Z,12.58
2019-02-26T17:22:28.550Z,12.54
2019-02-26T17:23:27.920Z,12.40
2019-02-26T17:24:29.535Z,12.15
2019-02-26T17:25:29.032Z,12.15
2019-02-26T17:26:27.909Z,12.15
2019-02-26T17:27:27.899Z,12.13
2019-02-26T17:28:27.867Z,12.16
2019-02-26T17:29:27.860Z,12.18
2019-02-26T17:30:27.822Z,12.19
2019-02-26T17:31:28.680Z,12.26
2019-02-26T17:32:27.807Z,12.36
2019-02-26T17:33:27.796Z,12.36
2019-02-26T17:34:27.813Z,12.34
2019-02-26T17:35:29.513Z,12.38
2019-02-26T17:36:27.756Z,12.37
2019-02-26T17:37:27.761Z,12.33
2019-02-26T17:38:27.729Z,12.31
2019-02-26T17:39:28.634Z,12.29
2019-02-26T17:40:27.724Z,12.25
2019-02-26T17:41:27.695Z,12.16
2019-02-26T17:42:27.688Z,12.15
2019-02-26T17:43:27.700Z,12.12
2019-02-26T17:44:27.689Z,12.19
2019-02-26T17:45:27.686Z,12.13
2019-02-26T17:46:27.654Z,12.18
2019-02-26T17:47:27.675Z,12.11
2019-02-26T17:48:30.181Z,12.05
2019-02-26T17:49:27.630Z,12.05
2019-02-26T17:50:27.641Z,12.00
2019-02-26T17:51:27.597Z,11.82
2019-02-26T17:52:27.587Z,11.70
2019-02-26T17:53:28.288Z,11.57
2019-02-26T17:54:27.560Z,11.46
2019-02-26T17:55:27.589Z,11.41
2019-02-26T17:56:27.532Z,11.41
2019-02-26T17:57:27.556Z,11.57
2019-02-26T17:58:27.529Z,11.57
2019-02-26T17:59:27.520Z,11.62
2019-02-26T18:00:27.512Z,11.56
2019-02-26T18:01:27.489Z,11.59
2019-02-26T18:02:28.011Z,11.59
2019-02-26T18:03:27.472Z,11.64
2019-02-26T18:04:27.567Z,11.56
2019-02-26T18:05:27.471Z,11.63
2019-02-26T18:06:27.452Z,11.54
2019-02-26T18:07:27.432Z,11.57
2019-02-26T18:08:27.457Z,11.53
2019-02-26T18:09:27.405Z,11.54
2019-02-26T18:10:27.441Z,11.60
2019-02-26T18:11:27.400Z,11.53
2019-02-26T18:12:27.363Z,11.56
2019-02-26T18:15:38.091Z,11.31
2019-02-26T18:16:38.060Z,11.38
2019-02-26T18:17:38.050Z,11.39
2019-02-26T18:18:38.037Z,11.39
2019-02-26T18:19:38.027Z,11.35
2019-02-26T18:20:38.028Z,11.31
2019-02-26T18:21:38.006Z,11.06
2019-02-26T18:22:38.010Z,10.88
2019-02-26T18:23:38.339Z,10.87
2019-02-26T18:24:37.974Z,10.83
2019-02-26T18:25:37.974Z,10.86
2019-02-26T18:26:37.952Z,10.78
2019-02-26T18:27:37.944Z,10.86
2019-02-26T18:28:37.930Z,10.88
2019-02-26T18:29:37.920Z,10.87
2019-02-26T18:30:37.920Z,10.90
2019-02-26T18:31:37.898Z,10.93
2019-02-26T18:32:37.887Z,10.83
2019-02-26T18:33:37.879Z,10.80
2019-02-26T18:34:37.866Z,10.76
2019-02-26T18:35:37.865Z,10.49
2019-02-26T18:36:37.846Z,10.36
2019-02-26T18:37:46.052Z,10.34
2019-02-26T18:38:38.824Z,10.18
2019-02-26T18:39:37.815Z,10.16
2019-02-26T18:40:37.814Z,10.04
2019-02-26T18:41:37.790Z,10.17
2019-02-26T18:42:38.745Z,10.20
2019-02-26T18:43:37.843Z,10.14
2019-02-26T18:44:37.758Z,10.22
2019-02-26T18:45:37.758Z,10.26
2019-02-26T18:46:37.737Z,10.31